createdAt,value
2023-05-15T00:00:37.426Z,12.50
2023-05-15T00:05:40.481Z,12.47
2023-05-15T00:10:59.770Z,12.47
2023-05-15T00:16:03.542Z,12.38
2023-05-15T00:21:06.480Z,12.38
2023-05-15T00:26:10.852Z,12.31
2023-05-15T00:31:14.918Z,12.28
2023-05-15T00:36:18.339Z,12.10
2023-05-15T00:41:24.133Z,12.01
2023-05-15T00:46:28.475Z,11.80
2023-05-15T00:51:31.515Z,11.76
2023-05-15T00:56:36.337Z,11.67
2023-05-15T01:01:39.267Z,11.63
2023-05-15T01:06:42.213Z,11.56
2023-05-15T01:11:48.559Z,11.42
2023-05-15T01:16:51.513Z,11.48
2023-05-15T01:22:19.342Z,11.50
2023-05-15T01:27:28.300Z,11.52
2023-05-15T01:32:39.332Z,11.52
2023-05-15T01:37:46.455Z,11.58
2023-05-15T01:42:56.280Z,11.46
2023-05-15T01:48:01.978Z,11.56
2023-05-15T01:53:06.306Z,11.70
2023-05-15T01:58:11.168Z,11.72
2023-05-15T02:03:14.589Z,11.72
2023-05-15T02:08:17.761Z,11.77
2023-05-15T02:13:23.494Z,11.69
2023-05-15T02:18:28.383Z,11.74
2023-05-15T02:23:33.898Z,11.70
2023-05-15T02:28:46.317Z,11.64
2023-05-15T02:33:57.068Z,11.40
2023-05-15T02:39:00.678Z,11.41
2023-05-15T02:44:05.690Z,11.68
2023-05-15T02:49:09.455Z,11.64
2023-05-15T02:54:12.749Z,11.69
2023-05-15T02:59:19.836Z,11.75
2023-05-15T03:04:22.909Z,11.76
2023-05-15T03:09:26.442Z,11.73
2023-05-15T03:14:30.783Z,11.73
2023-05-15T03:19:33.755Z,11.87
2023-05-15T03:24:36.757Z,11.66
2023-05-15T03:29:41.019Z,11.83
2023-05-15T03:34:43.899Z,11.94
2023-05-15T03:39:46.813Z,11.89
2023-05-15T03:44:51.393Z,11.95
2023-05-15T03:49:54.375Z,11.96
2023-05-15T03:54:57.301Z,12.12
2023-05-15T04:00:07.442Z,12.06
2023-05-15T04:05:30.342Z,12.10
2023-05-15T04:10:33.792Z,11.95
2023-05-15T04:15:38.454Z,12.03
2023-05-15T04:20:41.405Z,12.07
2023-05-15T04:25:46.771Z,12.17
2023-05-15T04:30:51.184Z,12.29
2023-05-15T04:35:54.311Z,12.34
2023-05-15T04:40:57.180Z,12.39
2023-05-15T04:46:01.473Z,12.45
2023-05-15T04:51:04.376Z,12.65
2023-05-15T04:56:07.398Z,12.69
2023-05-15T05:01:11.679Z,12.78
2023-05-15T05:06:14.663Z,12.89
2023-05-15T05:11:17.574Z,12.96
2023-05-15T05:16:21.880Z,12.88
2023-05-15T05:21:24.776Z,12.66
2023-05-15T05:26:28.227Z,12.68
2023-05-15T05:31:32.545Z,12.69
2023-05-15T05:36:36.962Z,12.53
2023-05-15T05:41:39.848Z,12.88
2023-05-15T05:46:45.323Z,13.15
2023-05-15T05:51:48.462Z,13.31
2023-05-15T05:56:51.384Z,13.32
2023-05-15T06:01:55.663Z,13.57
2023-05-15T06:06:58.767Z,13.93
2023-05-15T06:12:04.687Z,13.73
2023-05-15T06:17:09.096Z,14.19
2023-05-15T06:22:12.136Z,14.54
2023-05-15T06:27:15.032Z,14.91
2023-05-15T06:32:19.318Z,15.16
2023-05-15T06:37:22.324Z,15.27
2023-05-15T06:42:25.380Z,15.39
2023-05-15T06:47:29.805Z,15.42
2023-05-15T06:52:32.706Z,15.49
2023-05-15T06:57:35.697Z,15.58
2023-05-15T07:02:40.098Z,15.82
2023-05-15T07:07:43.779Z,16.22
2023-05-15T07:12:46.746Z,16.60
2023-05-15T07:17:51.113Z,16.62
2023-05-15T07:22:56.706Z,16.58
2023-05-15T07:27:59.806Z,16.83
2023-05-15T07:33:04.506Z,16.87
2023-05-15T07:38:07.563Z,16.44
2023-05-15T07:43:10.488Z,16.70
2023-05-15T07:48:19.133Z,16.74
2023-05-15T07:53:22.055Z,16.81
2023-05-15T07:58:25.037Z,17.09
2023-05-15T08:03:29.432Z,17.33
2023-05-15T08:08:32.747Z,17.51
2023-05-15T08:13:35.709Z,17.28
2023-05-15T08:18:39.970Z,17.42
2023-05-15T08:23:42.950Z,17.29
2023-05-15T08:28:45.881Z,17.30
2023-05-15T08:33:50.141Z,16.14
2023-05-15T08:38:53.037Z,16.16
2023-05-15T08:43:58.865Z,16.87
2023-05-15T08:49:06.223Z,16.62
2023-05-15T08:54:10.187Z,15.70
2023-05-15T08:59:13.079Z,16.79
2023-05-15T09:04:17.328Z,16.60
2023-05-15T09:09:21.369Z,16.04
2023-05-15T09:14:24.256Z,16.65
2023-05-15T09:19:29.110Z,16.66
2023-05-15T09:24:32.149Z,17.24
2023-05-15T09:29:37.059Z,17.81
2023-05-15T09:34:42.699Z,18.41
2023-05-15T09:39:46.296Z,18.84
2023-05-15T09:44:49.198Z,19.55
2023-05-15T09:49:53.851Z,18.80
2023-05-15T09:54:58.185Z,18.17
2023-05-15T10:00:05.230Z,18.26
2023-05-15T10:05:42.529Z,18.51
2023-05-15T10:10:49.062Z,17.23
2023-05-15T10:15:54.181Z,17.65
2023-05-15T10:21:04.005Z,17.77
2023-05-15T10:26:15.342Z,18.65
2023-05-15T10:31:19.896Z,18.27
2023-05-15T10:36:25.315Z,18.93
2023-05-15T10:41:29.977Z,17.92
2023-05-15T10:46:35.894Z,18.08
2023-05-15T10:51:40.739Z,18.76
2023-05-15T10:56:43.789Z,19.54
2023-05-15T11:01:47.147Z,20.16
2023-05-15T11:06:52.466Z,20.87
2023-05-15T11:11:58.017Z,21.93
2023-05-15T11:17:04.072Z,19.90
2023-05-15T11:22:30.715Z,18.61
2023-05-15T11:27:39.334Z,19.05
2023-05-15T11:32:44.048Z,18.48
2023-05-15T11:37:50.536Z,18.10
2023-05-15T11:43:05.710Z,17.89
2023-05-15T11:48:13.648Z,17.63
2023-05-15T11:53:19.685Z,16.19
2023-05-15T11:58:24.414Z,16.97
2023-05-15T12:03:33.455Z,17.15
2023-05-15T12:08:38.656Z,16.90
2023-05-15T12:13:41.606Z,17.36
2023-05-15T12:18:44.510Z,17.91
2023-05-15T12:24:06.286Z,19.03
2023-05-15T12:29:10.745Z,20.57
2023-05-15T12:34:13.779Z,21.37
2023-05-15T12:39:18.282Z,21.24
2023-05-15T12:44:21.876Z,21.15
2023-05-15T12:49:24.904Z,20.72
2023-05-15T12:54:29.228Z,19.18
2023-05-15T12:59:32.616Z,20.52
2023-05-15T13:04:35.550Z,20.03
2023-05-15T13:09:39.895Z,21.67
2023-05-15T13:14:43.374Z,20.93
2023-05-15T13:19:46.339Z,21.53
2023-05-15T13:24:52.829Z,21.99
2023-05-15T13:29:55.982Z,22.31
2023-05-15T13:34:59.707Z,21.79
2023-05-15T13:40:06.653Z,22.08
2023-05-15T13:45:10.995Z,21.87
2023-05-15T13:50:16.632Z,22.43
2023-05-15T13:55:22.994Z,22.60
2023-05-15T14:00:26.545Z,23.15
2023-05-15T14:05:29.785Z,22.33
2023-05-15T14:10:34.994Z,21.63
2023-05-15T14:15:37.916Z,22.15
2023-05-15T14:20:40.849Z,22.24
2023-05-15T14:25:45.134Z,22.66
2023-05-15T14:30:48.004Z,20.84
2023-05-15T14:35:50.910Z,20.60
2023-05-15T14:40:55.529Z,20.32
2023-05-15T14:45:58.464Z,19.62
2023-05-15T14:51:01.718Z,19.68
2023-05-15T14:56:06.612Z,20.52
2023-05-15T15:01:09.871Z,20.72
2023-05-15T15:06:13.128Z,20.62
2023-05-15T15:11:17.404Z,20.88
2023-05-15T15:16:20.446Z,21.55
2023-05-15T15:21:23.397Z,20.29
2023-05-15T15:26:27.786Z,21.39
2023-05-15T15:31:31.765Z,21.71
2023-05-15T15:36:37.479Z,21.03
2023-05-15T15:41:41.803Z,21.78
2023-05-15T15:46:44.669Z,22.06
2023-05-15T15:51:47.631Z,19.96
2023-05-15T15:56:52.519Z,18.81
2023-05-15T16:01:55.715Z,17.99
2023-05-15T16:06:58.591Z,17.08
2023-05-15T16:12:03.656Z,16.84
2023-05-15T16:17:06.601Z,16.74
2023-05-15T16:22:09.600Z,17.33
2023-05-15T16:27:13.847Z,17.97
2023-05-15T16:32:16.733Z,18.66
2023-05-15T16:37:19.691Z,18.87
2023-05-15T16:42:23.924Z,18.89
2023-05-15T16:47:26.942Z,18.92
2023-05-15T16:52:29.969Z,18.76
2023-05-15T16:57:34.205Z,18.66
2023-05-15T17:02:37.372Z,18.53
2023-05-15T17:07:41.019Z,17.82
2023-05-15T17:12:45.909Z,17.32
2023-05-15T17:17:48.847Z,17.26
2023-05-15T17:22:51.853Z,17.67
2023-05-15T17:27:56.134Z,18.10
2023-05-15T17:33:00.266Z,18.39
2023-05-15T17:38:03.253Z,18.50
2023-05-15T17:43:09.814Z,18.53
2023-05-15T17:48:12.858Z,18.40
2023-05-15T17:53:16.486Z,18.31
2023-05-15T17:58:21.259Z,18.07
2023-05-15T18:03:24.393Z,17.87
2023-05-15T18:08:27.404Z,17.55
2023-05-15T18:13:31.662Z,17.54
2023-05-15T18:18:35.969Z,17.06
2023-05-15T18:23:38.923Z,16.80
2023-05-15T18:28:43.224Z,16.93
2023-05-15T18:33:46.769Z,17.00
2023-05-15T18:38:49.748Z,17.07
2023-05-15T18:43:53.970Z,17.06
2023-05-15T18:48:56.977Z,16.91
2023-05-15T18:53:59.832Z,16.68
2023-05-15T18:59:04.128Z,16.62
2023-05-15T19:04:07.091Z,16.43
2023-05-15T19:09:10.569Z,16.48
2023-05-15T19:14:15.713Z,16.34
2023-05-15T19:19:19.002Z,16.24
2023-05-15T19:24:22.143Z,16.34
2023-05-15T19:29:26.396Z,16.45
2023-05-15T19:34:29.440Z,16.53
2023-05-15T19:39:33.658Z,16.45
2023-05-15T19:44:37.918Z,16.27
2023-05-15T19:49:40.835Z,16.18
2023-05-15T19:54:44.313Z,16.17
2023-05-15T19:59:48.654Z,16.16
2023-05-15T20:04:51.802Z,16.11
2023-05-15T20:09:56.247Z,15.92
2023-05-15T20:15:00.740Z,15.82
2023-05-15T20:20:08.100Z,15.92
2023-05-15T20:25:11.141Z,15.73
2023-05-15T20:30:15.629Z,15.86
2023-05-15T20:35:18.584Z,15.91
2023-05-15T20:40:23.003Z,15.82
2023-05-15T20:45:27.945Z,15.74
2023-05-15T20:50:30.846Z,15.81
2023-05-15T20:55:33.777Z,15.65
2023-05-15T21:00:38.136Z,15.68
2023-05-15T21:05:40.998Z,15.59
2023-05-15T21:10:43.911Z,15.43
2023-05-15T21:15:48.209Z,15.37
2023-05-15T21:20:51.710Z,15.38
2023-05-15T21:25:54.582Z,15.31
2023-05-15T21:31:00.523Z,15.19
2023-05-15T21:36:03.495Z,15.11
2023-05-15T21:41:06.529Z,15.07
2023-05-15T21:46:10.881Z,14.81
2023-05-15T21:51:13.807Z,14.88
2023-05-15T21:56:16.724Z,14.89
2023-05-15T22:01:21.104Z,14.71
2023-05-15T22:06:24.156Z,14.63
2023-05-15T22:11:27.195Z,14.57
2023-05-15T22:16:31.462Z,14.56
2023-05-15T22:21:34.515Z,14.56
2023-05-15T22:26:37.348Z,14.49
2023-05-15T22:31:41.642Z,14.46
2023-05-15T22:36:44.926Z,14.32
2023-05-15T22:41:47.948Z,14.30
2023-05-15T22:46:52.273Z,14.26
2023-05-15T22:51:55.912Z,14.20
2023-05-15T22:56:58.796Z,14.10
2023-05-15T23:02:03.934Z,14.09
2023-05-15T23:07:06.909Z,13.84
2023-05-15T23:12:09.903Z,14.03
2023-05-15T23:17:14.269Z,13.87
2023-05-15T23:22:17.192Z,13.80
2023-05-15T23:27:20.141Z,13.74
2023-05-15T23:32:24.491Z,13.85
2023-05-15T23:37:27.424Z,13.78
2023-05-15T23:42:31.189Z,13.79
2023-05-15T23:47:35.611Z,13.66
2023-05-15T23:52:38.517Z,13.66
2023-05-15T23:57:41.457Z,13.63
